Flight Track Log - Related Links

Times and Time Zones

All times are in EDT time to prevent confusion due to time zone crossing. See the UAL395 flight status page for this flight to view local times or setup timezone preferences in your user account.

Time Position Orientation Groundspeed Altitude Reporting Facility
EDT Latitude Longitude Course Direction KTS MPH feet Rate Location/Type
Fri 07:27:05 PM 41.9333 -87.9167 261° West 167 192 2,200  Level Chicago TRACON
Fri 07:27:59 PM 41.9000 -87.9667 228° Southwest 208 239 3,900 2,000 Climbing Chicago TRACON
Fri 07:28:59 PM 41.8833 -88.0500 255° West 253 291 6,000 2,431 Climbing Chicago TRACON
Fri 07:29:00 PM 41.9323 -88.3385 255° West  Level FlightAware Approximate
Fri 07:30:00 PM 41.9146 -88.4848 261° West  Level FlightAware Approximate
Fri 07:30:32 PM 41.8797 -88.1919 268° West 256 295 10,100  Level Chicago Center
Fri 07:31:00 PM 41.8973 -88.6322 261° West  Level FlightAware Approximate
Fri 07:31:34 PM 41.8742 -88.2928 266° West 270 311 12,100  Level Chicago Center
Fri 07:32:00 PM 41.8800 -88.7796 261° West  Level FlightAware Approximate
Fri 07:32:36 PM 41.8703 -88.4025 267° West 291 335 13,700  Level Chicago Center
Fri 07:33:38 PM 41.8636 -88.5600 267° West 355 409 15,000 1,597 Climbing Chicago Center
Fri 07:34:40 PM 41.8561 -88.7011 266° West 379 436 17,000 1,694 Climbing Chicago Center
Fri 07:35:42 PM 41.8475 -88.8447 265° West 389 448 18,500 1,452 Climbing Chicago Center
Fri 07:36:44 PM 41.8394 -88.9925 266° West 401 461 20,000 1,500 Climbing Chicago Center
Fri 07:37:46 PM 41.8311 -89.1456 266° West 412 474 21,600 1,694 Climbing Chicago Center
Fri 07:38:48 PM 41.8244 -89.3314 267° West 419 482 23,500 1,645 Climbing Chicago Center
Fri 07:39:50 PM 41.8172 -89.4853 266° West 418 481 25,000 1,306 Climbing Chicago Center
Fri 07:40:52 PM 41.8042 -89.6389 264° West 421 484 26,200 1,113 Climbing Chicago Center
Fri 07:41:54 PM 41.7803 -89.8122 260° West 429 494 27,300 968 Climbing Chicago Center
Fri 07:42:56 PM 41.7572 -89.9719 259° West 437 503 28,200 774 Climbing Chicago Center
Fri 07:43:58 PM 41.7328 -90.1367 259° West 447 514 28,900 774 Climbing Chicago Center
Fri 07:45:00 PM 41.7078 -90.3056 259° West 461 531 29,800 1,113 Climbing Chicago Center
Fri 07:46:02 PM 41.6819 -90.4758 259° West 467 537 31,200 1,694 Climbing Chicago Center
Fri 07:47:04 PM 41.6569 -90.6439 259° West 444 511 33,300 1,645 Climbing Chicago Center
Fri 07:48:06 PM 41.6328 -90.7942 258° West 425 489 34,600 823 Climbing Chicago Center
Fri 07:49:08 PM 41.6067 -90.9722 259° West 414 476 35,000 435 Climbing Chicago Center
Fri 07:50:10 PM 41.5819 -91.1258 258° West 419 482 35,500 484 Climbing Chicago Center
Fri 07:51:12 PM 41.5586 -91.2794 259° West 424 488 36,000 242 Climbing Chicago Center
Fri 07:52:14 PM 41.5344 -91.4319 258° West 424 488 36,000  Level Chicago Center
Fri 07:53:16 PM 41.5100 -91.5844 258° West 424 488 36,000  Level Chicago Center
Fri 07:54:18 PM 41.4858 -91.7356 258° West 421 484 36,000  Level Chicago Center
Fri 07:55:20 PM 41.4558 -91.9164 258° West 420 483 36,000  Level Chicago Center
Fri 07:56:22 PM 41.4306 -92.0664 257° West 418 481 36,000  Level Chicago Center
Fri 07:57:24 PM 41.4064 -92.2181 258° West 418 481 36,000  Level Chicago Center
Fri 07:58:26 PM 41.3806 -92.3683 257° West 420 483 36,000 -97 Level Chicago Center
Fri 07:59:28 PM 41.3514 -92.5433 258° West 421 484 35,800 -581 Descending Chicago Center
Fri 08:00:30 PM 41.3253 -92.6936 257° West 422 486 34,800 -871 Descending Chicago Center
Fri 08:01:32 PM 41.2997 -92.8447 257° West 423 487 34,000 -466 Descending Chicago Center
Fri 08:02:13 PM 41.2786 -92.9694 257° West 428 493 34,000  Level Minneapolis Center
Fri 08:03:15 PM 41.2517 -93.1214 257° West 428 493 34,000  Level Minneapolis Center
Fri 08:04:17 PM 41.2247 -93.2728 257° West 427 491 34,000  Level Minneapolis Center
Fri 08:05:19 PM 41.1978 -93.4244 257° West 427 491 34,000  Level Minneapolis Center
Fri 08:06:20 PM 41.1717 -93.5722 257° West 421 484 34,000  Level Minneapolis Center
Fri 08:07:22 PM 41.1425 -93.7511 258° West 419 482 34,000  Level Minneapolis Center
Fri 08:08:24 PM 41.1139 -93.9028 256° West 426 490 34,000  Level Minneapolis Center
Fri 08:09:26 PM 41.1106 -94.0589 268° West 431 496 34,000  Level Minneapolis Center
Fri 08:10:28 PM 41.1069 -94.2144 268° West 429 494 34,000  Level Minneapolis Center
Fri 08:11:30 PM 41.1042 -94.3706 269° West 429 494 34,000  Level Minneapolis Center
Fri 08:12:31 PM 41.1017 -94.5578 269° West 428 493 34,000  Level Minneapolis Center
Fri 08:13:33 PM 41.0975 -94.7006 268° West 432 497 34,000  Level Minneapolis Center
Fri 08:14:35 PM 41.0953 -94.8600 269° West 432 497 34,000  Level Minneapolis Center
Fri 08:15:37 PM 41.0597 -95.0467 256° West 432 497 34,000  Level Minneapolis Center
Fri 08:16:39 PM 41.0267 -95.2022 254° West 435 501 34,000  Level Minneapolis Center
Fri 08:17:40 PM 40.9919 -95.3567 253° West 435 501 34,000  Level Minneapolis Center
Fri 08:18:42 PM 40.9581 -95.5117 254° West 435 501 34,000  Level Minneapolis Center
Fri 08:19:44 PM 40.9228 -95.6672 253° West 437 503 34,000  Level Minneapolis Center
Fri 08:20:46 PM 40.8872 -95.8219 253° West 437 503 34,000  Level Minneapolis Center
Fri 08:21:48 PM 40.8528 -95.9775 254° West 438 504 34,000  Level Minneapolis Center
Fri 08:22:50 PM 40.8178 -96.1322 253° West 437 503 34,000  Level Minneapolis Center
Fri 08:23:52 PM 40.7814 -96.2869 253° West 439 505 34,000  Level Minneapolis Center
Fri 08:24:53 PM 40.7392 -96.4708 253° West 435 501 34,000  Level Minneapolis Center
Fri 08:25:55 PM 40.7050 -96.6236 254° West 434 499 34,000  Level Minneapolis Center
Fri 08:26:57 PM 40.6681 -96.7775 252° West 438 504 34,000  Level Minneapolis Center
Fri 08:27:59 PM 40.6328 -96.9308 253° West 438 504 34,000  Level Minneapolis Center
Fri 08:29:01 PM 40.5961 -97.0819 252° West 435 501 34,000  Level Minneapolis Center
Fri 08:30:14 PM 40.5606 -97.2331 253° West 433 498 34,000 441 Level Minneapolis Center
Fri 08:31:17 PM 40.5111 -97.4361 252° West 428 493 35,000 871 Climbing Minneapolis Center
Fri 08:32:18 PM 40.4758 -97.5828 252° West 423 487 35,800 441 Climbing Minneapolis Center
Fri 08:33:33 PM 40.4325 -97.7592 252° West 422 486 36,000 88 Climbing Minneapolis Center
Fri 08:34:35 PM 40.3964 -97.9064 252° West 422 486 36,000  Level Minneapolis Center
Fri 08:35:36 PM 40.3600 -98.0533 252° West 423 487 36,000  Level Minneapolis Center
Fri 08:36:38 PM 40.3231 -98.2022 252° West 426 490 36,000  Level Minneapolis Center
Fri 08:37:40 PM 40.2858 -98.3497 252° West 425 489 36,000  Level Minneapolis Center
Fri 08:38:42 PM 40.2414 -98.5275 252° West 428 493 36,000  Level Minneapolis Center
Fri 08:39:44 PM 40.2036 -98.6769 252° West 428 493 36,000  Level Minneapolis Center
Fri 08:40:46 PM 40.1658 -98.8267 252° West 430 495 36,000  Level Minneapolis Center
Fri 08:41:48 PM 40.1283 -98.9761 252° West 431 496 36,000  Level Minneapolis Center
Fri 08:42:41 PM 40.0972 -99.0925 251° West 429 494 36,000  Level Denver Center
Fri 08:43:43 PM 40.0589 -99.2406 251° West 429 494 36,000  Level Denver Center
Fri 08:44:45 PM 40.0122 -99.4186 251° West 431 496 36,000  Level Denver Center
Fri 08:45:46 PM 39.9806 -99.5369 251° West 431 496 36,000  Level Denver Center
Fri 08:46:48 PM 39.9333 -99.7147 251° West 431 496 36,000  Level Denver Center
Fri 08:47:50 PM 39.8936 -99.8650 251° West 438 504 36,000  Level Denver Center
Fri 08:48:52 PM 39.8539 -100.0125 251° West 433 498 36,000  Level Denver Center
Fri 08:49:54 PM 39.8133 -100.1625 251° West 437 503 36,000  Level Denver Center
Fri 08:50:56 PM 39.7667 -100.3372 251° West 443 510 36,000  Level Denver Center
Fri 08:51:58 PM 39.7264 -100.4833 250° West 447 514 36,000  Level Denver Center
Fri 08:53:00 PM 39.6800 -100.6536 251° West 446 513 36,000  Level Denver Center
Fri 08:54:02 PM 39.6392 -100.7981 250° West 444 511 36,000  Level Denver Center
Fri 08:55:04 PM 39.5997 -100.9447 251° West 447 514 36,000  Level Denver Center
Fri 08:56:06 PM 39.5500 -101.1181 250° West 456 525 36,000  Level Denver Center
Fri 08:57:07 PM 39.5086 -101.2653 250° West 455 524 36,000  Level Denver Center
Fri 08:58:09 PM 39.4597 -101.4381 250° West 459 528 36,000  Level Denver Center
Fri 08:59:11 PM 39.3867 -101.5606 232° Southwest 456 525 36,000  Level Denver Center
Fri 09:00:13 PM 39.2953 -101.6986 229° Southwest 449 517 36,000  Level Denver Center
Fri 09:01:15 PM 39.2178 -101.8119 229° Southwest 444 511 36,000  Level Denver Center
Fri 09:02:16 PM 39.1464 -101.9322 233° Southwest 443 510 36,000  Level Denver Center
Fri 09:03:18 PM 39.0881 -102.0944 245° Southwest 449 517 36,000  Level Denver Center
Fri 09:04:20 PM 39.0394 -102.2292 245° Southwest 442 509 36,000  Level Denver Center
Fri 09:05:22 PM 38.9847 -102.3847 246° West 433 498 36,000  Level Denver Center
Fri 09:06:24 PM 38.9367 -102.5203 246° West 434 499 36,000  Level Denver Center
Fri 09:07:25 PM 38.8769 -102.6797 244° Southwest 440 506 36,000  Level Denver Center
Fri 09:08:27 PM 38.8328 -102.8031 245° Southwest 438 504 36,000  Level Denver Center
Fri 09:09:29 PM 38.7722 -102.9678 245° Southwest 430 495 36,000  Level Denver Center
Fri 09:10:31 PM 38.7225 -103.1028 245° Southwest 423 487 36,000  Level Denver Center
Fri 09:11:32 PM 38.6731 -103.2411 245° Southwest 425 489 36,000 49 Level Denver Center
Fri 09:12:34 PM 38.6214 -103.3792 244° Southwest 428 493 36,100 49 Climbing Denver Center
Fri 09:13:35 PM 38.5786 -103.4931 244° Southwest 431 496 36,100 -48 Level Denver Center
Fri 09:14:38 PM 38.5142 -103.6644 244° Southwest 423 487 36,000 -48 Descending Denver Center
Fri 09:15:39 PM 38.4667 -103.7919 245° Southwest 419 482 36,000  Level Denver Center
Fri 09:16:41 PM 38.4119 -103.9375 244° Southwest 413 475 36,000 -48 Level Denver Center
Fri 09:17:43 PM 38.3656 -104.0572 244° Southwest 402 463 35,900  Descending Denver Center
Fri 09:18:45 PM 38.3136 -104.1961 245° Southwest 393 452 36,000 49 Climbing Denver Center
Fri 09:19:46 PM 38.2683 -104.3125 244° Southwest 388 447 36,000  Level Denver Center
Fri 09:20:48 PM 38.2153 -104.4503 244° Southwest 388 447 36,000  Level Denver Center
Fri 09:21:50 PM 38.1697 -104.5689 244° Southwest 389 448 36,000  Level Denver Center
Fri 09:22:52 PM 38.1169 -104.7069 244° Southwest 391 450 36,000 49 Level Denver Center
Fri 09:23:53 PM 38.0783 -104.8047 243° Southwest 390 449 36,100  Climbing Denver Center
Fri 09:24:55 PM 38.0250 -104.9428 244° Southwest 392 451 36,000 -48 Descending Denver Center
Fri 09:25:57 PM 37.9711 -105.0781 243° Southwest 387 445 36,000  Level Denver Center
Fri 09:26:59 PM 37.9247 -105.1961 244° Southwest 389 448 36,000  Level Denver Center
Fri 09:28:01 PM 37.8706 -105.3347 244° Southwest 393 452 36,000  Level Denver Center
Fri 09:29:03 PM 37.8236 -105.4533 243° Southwest 394 453 36,000  Level Denver Center
Fri 09:30:04 PM 37.7672 -105.5944 243° Southwest 402 463 36,000  Level Denver Center
Fri 09:31:18 PM 37.7186 -105.7117 242° Southwest 395 455 36,000  Level Denver Center
Fri 09:32:21 PM 37.6564 -105.8700 244° Southwest 394 453 36,000  Level Denver Center
Fri 09:33:22 PM 37.6078 -105.9872 242° Southwest 393 452 36,000  Level Denver Center
Fri 09:34:24 PM 37.5519 -106.1250 243° Southwest 395 455 36,000  Level Denver Center
Fri 09:35:26 PM 37.4986 -106.2578 243° Southwest 399 459 36,000  Level Denver Center
Fri 09:36:28 PM 37.4506 -106.3772 243° Southwest 399 459 36,000  Level Denver Center
Fri 09:37:30 PM 37.4025 -106.4942 243° Southwest 395 455 36,000  Level Denver Center
Fri 09:38:31 PM 37.3447 -106.6339 243° Southwest 402 463 36,000  Level Denver Center
Fri 09:39:33 PM 37.3044 -106.7333 243° Southwest 402 463 36,000  Level Denver Center
Fri 09:40:35 PM 37.2369 -106.8908 242° Southwest 401 461 36,000  Level Denver Center
Fri 09:41:37 PM 37.1881 -107.0097 243° Southwest 400 460 36,000  Level Denver Center
Fri 09:42:39 PM 37.1308 -107.1456 242° Southwest 396 456 36,000  Level Denver Center
Fri 09:43:41 PM 37.0806 -107.2639 242° Southwest 401 461 36,000  Level Denver Center
Fri 09:44:43 PM 37.0228 -107.4022 242° Southwest 402 463 36,000  Level Denver Center
Fri 09:45:45 PM 36.9811 -107.5017 242° Southwest 402 463 36,000  Level Denver Center
Fri 09:46:47 PM 36.9144 -107.6567 242° Southwest 400 460 36,000  Level Denver Center
Fri 09:47:49 PM 36.8639 -107.7758 242° Southwest 402 463 36,000  Level Denver Center
Fri 09:48:51 PM 36.8136 -107.8947 242° Southwest 402 463 36,000  Level Denver Center
Fri 09:49:52 PM 36.7542 -108.0336 242° Southwest 406 467 36,000  Level Denver Center
Fri 09:50:54 PM 36.7028 -108.1514 241° Southwest 406 467 36,000  Level Denver Center
Fri 09:51:56 PM 36.6433 -108.2878 242° Southwest 402 463 36,000  Level Denver Center
Fri 09:52:58 PM 36.5925 -108.4056 242° Southwest 402 463 36,000  Level Denver Center
Fri 09:54:00 PM 36.5331 -108.5417 242° Southwest 402 463 36,000  Level Denver Center
Fri 09:55:02 PM 36.4825 -108.6575 242° Southwest 400 460 36,000  Level Denver Center
Fri 09:56:04 PM 36.4247 -108.7914 242° Southwest 397 457 36,000  Level Denver Center
Fri 09:57:18 PM 36.3739 -108.9053 241° Southwest 396 456 36,000  Level Denver Center
Fri 09:58:20 PM 36.3061 -109.0583 241° Southwest 400 460 36,000 48 Level Denver Center
Fri 09:59:22 PM 36.2447 -109.1936 241° Southwest 405 466 36,100  Climbing Denver Center
Fri 10:00:24 PM 36.1928 -109.3086 241° Southwest 404 465 36,000 -48 Descending Denver Center
Fri 10:01:26 PM 36.1319 -109.4431 241° Southwest 402 463 36,000  Level Denver Center
Fri 10:02:28 PM 36.0803 -109.5572 241° Southwest 401 461 36,000  Level Denver Center
Fri 10:03:30 PM 36.0203 -109.6906 241° Southwest 398 458 36,000  Level Denver Center
Fri 10:04:32 PM 35.9681 -109.8036 240° Southwest 397 457 36,000  Level Denver Center
Fri 10:05:34 PM 35.9164 -109.9172 241° Southwest 396 456 36,000  Level Denver Center
Fri 10:06:36 PM 35.8561 -110.0497 241° Southwest 396 456 36,000  Level Denver Center
Fri 10:07:25 PM 35.8092 -110.1425 238° Southwest 399 459 36,000  Level Albuquerque Center
Fri 10:08:26 PM 35.7578 -110.2564 241° Southwest 397 457 36,000  Level Albuquerque Center
Fri 10:09:27 PM 35.6975 -110.3878 241° Southwest 396 456 36,000  Level Albuquerque Center
Fri 10:10:29 PM 35.6450 -110.5014 240° Southwest 397 457 36,000  Level Albuquerque Center
Fri 10:11:30 PM 35.5828 -110.6336 240° Southwest 399 459 36,000  Level Albuquerque Center
Fri 10:12:32 PM 35.5292 -110.7467 240° Southwest 400 460 36,000  Level Albuquerque Center
Fri 10:13:33 PM 35.4778 -110.8597 241° Southwest 398 458 36,000  Level Albuquerque Center
Fri 10:14:35 PM 35.4153 -110.9917 240° Southwest 400 460 36,000  Level Albuquerque Center
Fri 10:15:36 PM 35.3625 -111.1044 240° Southwest 398 458 36,000  Level Albuquerque Center
Fri 10:16:37 PM 35.3083 -111.2178 240° Southwest 400 460 36,000  Level Albuquerque Center
Fri 10:17:39 PM 35.2539 -111.3408 242° Southwest 408 470 36,000  Level Albuquerque Center
Fri 10:18:40 PM 35.1975 -111.4564 239° Southwest 401 461 36,000  Level Albuquerque Center
Fri 10:19:42 PM 35.1303 -111.5989 240° Southwest 404 465 36,000  Level Albuquerque Center
Fri 10:20:43 PM 35.0725 -111.7175 239° Southwest 407 468 36,000  Level Albuquerque Center
Fri 10:21:45 PM 35.0144 -111.8394 240° Southwest 409 471 36,000  Level Albuquerque Center
Fri 10:22:46 PM 34.9558 -111.9592 239° Southwest 411 473 36,000  Level Albuquerque Center
Fri 10:23:47 PM 34.8983 -112.0775 239° Southwest 409 471 36,000  Level Albuquerque Center
Fri 10:24:49 PM 34.8411 -112.1972 240° Southwest 409 471 36,000  Level Albuquerque Center
Fri 10:25:50 PM 34.7828 -112.3144 239° Southwest 407 468 36,000  Level Albuquerque Center
Fri 10:26:52 PM 34.7258 -112.4333 240° Southwest 407 468 36,000  Level Albuquerque Center
Fri 10:27:53 PM 34.6817 -112.5578 247° West 406 467 36,000  Level Albuquerque Center
Fri 10:28:54 PM 34.6411 -112.7114 252° West 401 461 36,000 -390 Level Albuquerque Center
Fri 10:29:56 PM 34.6072 -112.8411 252° West 402 463 35,200 -878 Descending Albuquerque Center
Fri 10:30:57 PM 34.5722 -112.9719 252° West 406 467 34,200 -590 Descending Albuquerque Center
Fri 10:31:58 PM 34.5367 -113.1053 252° West 413 475 34,000 -98 Descending Albuquerque Center
Fri 10:33:00 PM 34.5003 -113.2378 252° West 416 479 34,000  Level Albuquerque Center
Fri 10:34:01 PM 34.4653 -113.3683 252° West 412 474 34,000  Level Albuquerque Center
Fri 10:35:02 PM 34.4294 -113.5006 252° West 412 474 34,000  Level Albuquerque Center
Fri 10:36:04 PM 34.3908 -113.6428 252° West 417 480 34,000  Level Albuquerque Center
Fri 10:37:05 PM 34.3539 -113.7733 251° West 414 476 34,000  Level Albuquerque Center
Fri 10:38:06 PM 34.3178 -113.9061 252° West 413 475 34,000  Level Albuquerque Center
Fri 10:39:07 PM 34.2819 -114.0383 252° West 414 476 34,000  Level Albuquerque Center
Fri 10:40:09 PM 34.2375 -114.1986 251° West 416 479 34,000  Level Albuquerque Center
Fri 10:41:10 PM 34.2006 -114.3311 251° West 416 479 34,000 -65 Level Albuquerque Center
Fri 10:41:42 PM 34.1875 -114.3781 251° West 417 480 33,900  Descending Los Angeles Center
Fri 10:42:44 PM 34.1428 -114.5364 251° West 417 480 34,000  Climbing Los Angeles Center
Fri 10:43:46 PM 34.1056 -114.6669 251° West 413 475 33,900 -49 Descending Los Angeles Center
Fri 10:44:47 PM 34.0675 -114.7969 251° West 413 475 33,900 49 Level Los Angeles Center
Fri 10:45:49 PM 34.0233 -114.9264 248° West 421 484 34,000  Climbing Los Angeles Center
Fri 10:46:51 PM 33.9511 -115.0369 232° Southwest 423 487 33,900  Descending Los Angeles Center
Fri 10:47:53 PM 33.8761 -115.1467 231° Southwest 423 487 34,000  Climbing Los Angeles Center
Fri 10:48:54 PM 33.8203 -115.2369 233° Southwest 423 487 33,900 -532 Descending Los Angeles Center
Fri 10:49:57 PM 33.7164 -115.3903 231° Southwest 423 487 32,900 -1,452 Descending Los Angeles Center
Fri 10:50:58 PM 33.6444 -115.5014 232° Southwest 423 487 30,900 -2,098 Descending Los Angeles Center
Fri 10:52:00 PM 33.5689 -115.5975 227° Southwest 405 466 28,600 -2,129 Descending Los Angeles Center
Fri 10:53:02 PM 33.4989 -115.6964 230° Southwest 392 451 26,500 -2,081 Descending Los Angeles Center
Fri 10:54:04 PM 33.4322 -115.8019 233° Southwest 395 455 24,300 -1,415 Descending Los Angeles Center
Fri 10:55:05 PM 33.3625 -115.9058 231° Southwest 401 461 23,600 -1,561 Descending Los Angeles Center
Fri 10:56:07 PM 33.2825 -116.0264 232° Southwest 389 448 21,100 -2,371 Descending Los Angeles Center
Fri 10:57:09 PM 33.2192 -116.1228 232° Southwest 375 432 18,700 -2,129 Descending Los Angeles Center
Fri 10:58:11 PM 33.1564 -116.2175 232° Southwest 368 423 16,700 -1,984 Descending Los Angeles Center
Fri 10:59:13 PM 33.0956 -116.3106 232° Southwest 360 414 14,600 -1,854 Descending Los Angeles Center
Fri 11:00:14 PM 33.0364 -116.3989 231° Southwest 347 399 12,900 -1,561 Descending Los Angeles Center
Fri 11:01:16 PM 32.9542 -116.4733 217° Southwest 326 375 11,400 -1,210 Descending Los Angeles Center
Fri 11:02:18 PM 32.8731 -116.5211 206° Southwest 323 372 10,400 -968 Descending Los Angeles Center
Fri 11:03:20 PM 32.8200 -116.5825 224° Southwest 297 342 9,400 -1,168 Descending Los Angeles Center
Fri 11:05:23 PM 32.7431 -116.7431 240° Southwest 280 322 6,800 -1,070 Descending Los Angeles Center
Fri 11:06:25 PM 32.7061 -116.8206 240° Southwest 273 314 6,100 -920 Descending Los Angeles Center
Fri 11:07:40 PM 32.6667 -116.9333 247° West 240 276 4,700 -1,200 Descending Southern California TRACON
Fri 11:09:30 PM 32.6989 -117.0461 289° West 200 230 2,400 -1,255 Descending Los Angeles Center

Login

Don't have an account? Register now (free) for customized features, flight alerts, and more!